createdAt,value
2022-12-23T00:00:18.774Z,92
2022-12-23T00:01:19.908Z,92
2022-12-23T00:02:21.953Z,92
2022-12-23T00:03:23.753Z,92
2022-12-23T00:04:25.707Z,92
2022-12-23T00:05:32.674Z,92
2022-12-23T00:06:36.971Z,92
2022-12-23T00:07:38.099Z,92
2022-12-23T00:08:39.377Z,92
2022-12-23T00:09:40.781Z,92
2022-12-23T00:10:41.913Z,92
2022-12-23T00:11:43.086Z,93
2022-12-23T00:12:44.246Z,93
2022-12-23T00:13:45.361Z,93
2022-12-23T00:14:46.563Z,93
2022-12-23T00:15:47.741Z,93
2022-12-23T00:16:49.252Z,93
2022-12-23T00:17:50.753Z,93
2022-12-23T00:18:51.937Z,93
2022-12-23T00:19:53.598Z,93
2022-12-23T00:20:55.074Z,93
2022-12-23T00:21:56.212Z,93
2022-12-23T00:22:57.347Z,93
2022-12-23T00:23:58.204Z,93
2022-12-23T00:24:59.626Z,93
2022-12-23T00:26:01.035Z,93
2022-12-23T00:27:02.174Z,93
2022-12-23T00:28:03.116Z,93
2022-12-23T00:29:04.301Z,93
2022-12-23T00:30:05.803Z,93
2022-12-23T00:31:07.226Z,93
2022-12-23T00:32:08.753Z,93
2022-12-23T00:33:10.216Z,93
2022-12-23T00:34:11.088Z,93
2022-12-23T00:35:12.468Z,93
2022-12-23T00:36:13.877Z,93
2022-12-23T00:37:15.495Z,93
2022-12-23T00:38:16.909Z,93
2022-12-23T00:39:18.357Z,93
2022-12-23T00:40:19.187Z,93
2022-12-23T00:41:20.322Z,93
2022-12-23T00:42:21.737Z,93
2022-12-23T00:43:22.985Z,93
2022-12-23T00:44:24.255Z,93
2022-12-23T00:45:25.562Z,93
2022-12-23T00:46:27.427Z,93
2022-12-23T00:47:28.677Z,93
2022-12-23T00:48:29.858Z,93
2022-12-23T00:49:31.279Z,93
2022-12-23T00:50:32.461Z,93
2022-12-23T00:51:33.656Z,93
2022-12-23T00:52:34.836Z,94
2022-12-23T00:53:36.020Z,94
2022-12-23T00:54:37.153Z,94
2022-12-23T00:55:38.573Z,94
2022-12-23T00:56:39.796Z,94
2022-12-23T00:57:41.211Z,94
2022-12-23T00:58:42.650Z,94
2022-12-23T00:59:43.758Z,94
2022-12-23T01:00:45.439Z,94
2022-12-23T01:01:47.465Z,94
2022-12-23T01:02:49.422Z,94
2022-12-23T01:03:50.976Z,94
2022-12-23T01:04:51.882Z,94
2022-12-23T01:05:53.300Z,94
2022-12-23T01:06:54.431Z,94
2022-12-23T01:07:55.608Z,94
2022-12-23T01:08:56.738Z,94
2022-12-23T01:09:58.161Z,94
2022-12-23T01:10:59.575Z,94
2022-12-23T01:12:00.802Z,94
2022-12-23T01:13:02.375Z,94
2022-12-23T01:14:03.591Z,94
2022-12-23T01:15:04.727Z,94
2022-12-23T01:16:11.907Z,94
2022-12-23T01:17:16.669Z,94
2022-12-23T01:18:17.949Z,94
2022-12-23T01:20:34.712Z,94
2022-12-23T01:21:35.847Z,94
2022-12-23T01:22:37.262Z,94
2022-12-23T01:23:38.403Z,94
2022-12-23T01:24:39.825Z,94
2022-12-23T01:25:41.240Z,94
2022-12-23T01:26:42.645Z,94
2022-12-23T01:27:44.057Z,94
2022-12-23T01:28:45.200Z,94
2022-12-23T01:29:46.630Z,94
2022-12-23T01:30:48.637Z,94
2022-12-23T01:31:49.966Z,94
2022-12-23T01:32:51.108Z,94
2022-12-23T01:33:52.245Z,94
2022-12-23T01:34:53.379Z,94
2022-12-23T01:35:54.798Z,94
2022-12-23T01:36:55.971Z,94
2022-12-23T01:37:57.150Z,94
2022-12-23T01:38:58.567Z,94
2022-12-23T01:39:59.699Z,94
2022-12-23T01:41:00.556Z,94
2022-12-23T01:42:01.733Z,94
2022-12-23T01:43:03.154Z,94
2022-12-23T01:44:04.002Z,94
2022-12-23T01:45:05.449Z,94
2022-12-23T01:46:07.165Z,94
2022-12-23T01:47:08.220Z,94
2022-12-23T01:48:09.359Z,94
2022-12-23T01:49:10.570Z,95
2022-12-23T01:50:11.706Z,95
2022-12-23T01:51:13.125Z,95
2022-12-23T01:52:14.355Z,95
2022-12-23T01:53:15.255Z,95
2022-12-23T01:54:16.665Z,94
2022-12-23T01:55:18.079Z,94
2022-12-23T01:56:18.935Z,94
2022-12-23T01:57:19.806Z,94
2022-12-23T01:58:20.653Z,94
2022-12-23T01:59:21.793Z,94
2022-12-23T02:00:23.015Z,94
2022-12-23T02:01:24.780Z,94
2022-12-23T02:02:26.633Z,94
2022-12-23T02:03:28.101Z,94
2022-12-23T02:04:29.296Z,94
2022-12-23T02:05:30.222Z,94
2022-12-23T02:06:31.643Z,94
2022-12-23T02:07:33.078Z,94
2022-12-23T02:08:34.208Z,94
2022-12-23T02:09:35.383Z,94
2022-12-23T02:10:36.559Z,94
2022-12-23T02:11:37.458Z,94
2022-12-23T02:12:38.870Z,94
2022-12-23T02:13:39.767Z,94
2022-12-23T02:14:41.006Z,94
2022-12-23T02:15:42.205Z,94
2022-12-23T02:16:43.547Z,94
2022-12-23T02:17:45.062Z,94
2022-12-23T02:18:46.486Z,94
2022-12-23T02:19:47.379Z,94
2022-12-23T02:20:48.798Z,94
2022-12-23T02:21:50.782Z,94
2022-12-23T02:22:51.970Z,94
2022-12-23T02:23:53.145Z,94
2022-12-23T02:24:54.565Z,95
2022-12-23T02:25:55.694Z,94
2022-12-23T02:26:57.114Z,94
2022-12-23T02:27:58.526Z,95
2022-12-23T02:28:59.661Z,95
2022-12-23T02:30:01.109Z,95
2022-12-23T02:31:02.867Z,95
2022-12-23T02:32:04.209Z,95
2022-12-23T02:33:05.360Z,95
2022-12-23T02:34:06.548Z,95
2022-12-23T02:35:07.727Z,95
2022-12-23T02:36:08.861Z,95
2022-12-23T02:37:10.271Z,95
2022-12-23T02:38:11.691Z,95
2022-12-23T02:39:12.826Z,95
2022-12-23T02:40:13.688Z,95
2022-12-23T02:41:14.587Z,95
2022-12-23T02:42:15.488Z,95
2022-12-23T02:43:16.619Z,95
2022-12-23T02:44:18.036Z,95
2022-12-23T02:45:19.453Z,95
2022-12-23T02:46:20.648Z,95
2022-12-23T02:47:21.843Z,95
2022-12-23T02:48:22.748Z,95
2022-12-23T02:49:24.161Z,95
2022-12-23T02:50:25.578Z,95
2022-12-23T02:51:26.994Z,95
2022-12-23T02:52:28.411Z,95
2022-12-23T02:53:29.597Z,95
2022-12-23T02:54:30.443Z,95
2022-12-23T02:55:31.862Z,95
2022-12-23T02:56:32.716Z,95
2022-12-23T02:57:34.134Z,95
2022-12-23T02:58:35.311Z,95
2022-12-23T02:59:36.206Z,95
2022-12-23T03:00:37.341Z,95
2022-12-23T03:01:39.426Z,95
2022-12-23T03:02:41.373Z,95
2022-12-23T03:03:43.423Z,95
2022-12-23T03:04:44.589Z,95
2022-12-23T03:05:45.728Z,95
2022-12-23T03:06:46.904Z,95
2022-12-23T03:07:48.039Z,95
2022-12-23T03:08:48.893Z,95
2022-12-23T03:09:50.071Z,95
2022-12-23T03:10:51.490Z,95
2022-12-23T03:11:52.902Z,95
2022-12-23T03:12:54.312Z,95
2022-12-23T03:13:55.510Z,95
2022-12-23T03:14:56.897Z,95
2022-12-23T03:15:58.594Z,95
2022-12-23T03:16:59.747Z,95
2022-12-23T03:18:01.156Z,95
2022-12-23T03:19:02.555Z,95
2022-12-23T03:20:03.983Z,95
2022-12-23T03:21:05.388Z,95
2022-12-23T03:22:06.524Z,95
2022-12-23T03:23:07.937Z,95
2022-12-23T03:24:09.118Z,95
2022-12-23T03:25:09.965Z,95
2022-12-23T03:26:11.384Z,95
2022-12-23T03:27:12.797Z,95
2022-12-23T03:28:14.210Z,95
2022-12-23T03:29:15.348Z,95
2022-12-23T03:30:16.764Z,95
2022-12-23T03:31:18.227Z,95
2022-12-23T03:32:19.504Z,95
2022-12-23T03:33:20.899Z,95
2022-12-23T03:34:22.030Z,95
2022-12-23T03:35:23.213Z,95
2022-12-23T03:36:24.628Z,95
2022-12-23T03:37:25.800Z,95
2022-12-23T03:38:27.216Z,95
2022-12-23T03:39:28.601Z,95
2022-12-23T03:40:30.026Z,95
2022-12-23T03:41:31.434Z,95
2022-12-23T03:42:32.843Z,95
2022-12-23T03:43:33.985Z,95
2022-12-23T03:44:35.401Z,95
2022-12-23T03:45:42.059Z,95
2022-12-23T03:46:43.274Z,95
2022-12-23T03:47:44.610Z,95
2022-12-23T03:48:45.540Z,95
2022-12-23T03:49:46.438Z,95
2022-12-23T03:50:47.572Z,95
2022-12-23T03:51:48.708Z,95
2022-12-23T03:52:49.885Z,95
2022-12-23T03:53:50.783Z,95
2022-12-23T03:54:51.923Z,95
2022-12-23T03:55:53.105Z,95
2022-12-23T03:56:54.285Z,96
2022-12-23T03:57:55.423Z,96
2022-12-23T03:58:56.282Z,96
2022-12-23T03:59:57.414Z,96
2022-12-23T04:00:58.553Z,96
2022-12-23T04:02:00.031Z,95
2022-12-23T04:03:02.249Z,95
2022-12-23T04:04:03.556Z,96
2022-12-23T04:05:04.583Z,96
2022-12-23T04:06:05.721Z,96
2022-12-23T04:07:07.133Z,96
2022-12-23T04:08:08.308Z,96
2022-12-23T04:09:09.218Z,96
2022-12-23T04:10:10.208Z,96
2022-12-23T04:11:11.382Z,96
2022-12-23T04:12:12.514Z,96
2022-12-23T04:13:13.691Z,96
2022-12-23T04:14:14.825Z,96
2022-12-23T04:15:16.003Z,96
2022-12-23T04:16:17.263Z,96
2022-12-23T04:17:18.809Z,96
2022-12-23T04:18:19.974Z,96
2022-12-23T04:19:21.375Z,96
2022-12-23T04:20:22.771Z,96
2022-12-23T04:21:24.190Z,96
2022-12-23T04:22:25.369Z,96
2022-12-23T04:23:26.496Z,96
2022-12-23T04:24:27.912Z,95
2022-12-23T04:25:29.050Z,95
2022-12-23T04:26:30.294Z,95
2022-12-23T04:27:31.436Z,95
2022-12-23T04:28:32.855Z,95
2022-12-23T04:29:33.978Z,95
2022-12-23T04:30:36.073Z,95
2022-12-23T04:31:37.705Z,95
2022-12-23T04:32:39.355Z,95
2022-12-23T04:33:40.702Z,95
2022-12-23T04:34:41.944Z,95
2022-12-23T04:35:43.139Z,95
2022-12-23T04:36:44.544Z,95
2022-12-23T04:37:45.955Z,95
2022-12-23T04:38:47.370Z,96
2022-12-23T04:39:48.503Z,96
2022-12-23T04:40:49.924Z,96
2022-12-23T04:41:51.332Z,96
2022-12-23T04:42:52.760Z,96
2022-12-23T04:43:54.597Z,96
2022-12-23T04:44:55.733Z,96
2022-12-23T04:45:56.862Z,96
2022-12-23T04:46:58.356Z,96
2022-12-23T04:47:59.558Z,96
2022-12-23T04:49:00.715Z,96
2022-12-23T04:50:01.890Z,96
2022-12-23T04:51:03.056Z,96
2022-12-23T04:52:04.159Z,96
2022-12-23T04:53:05.587Z,96
2022-12-23T04:54:06.509Z,96
2022-12-23T04:55:07.920Z,96
2022-12-23T04:56:09.330Z,96
2022-12-23T04:57:10.502Z,96
2022-12-23T04:58:11.920Z,96
2022-12-23T04:59:13.336Z,96
2022-12-23T05:00:14.470Z,96
2022-12-23T05:01:16.106Z,96
2022-12-23T05:02:17.694Z,96
2022-12-23T05:03:19.696Z,95
2022-12-23T05:04:21.369Z,95
2022-12-23T05:05:22.603Z,95
2022-12-23T05:06:24.012Z,95
2022-12-23T05:07:25.427Z,95
2022-12-23T05:08:26.566Z,95
2022-12-23T05:09:27.483Z,95
2022-12-23T05:10:28.600Z,95
2022-12-23T05:11:29.519Z,95
2022-12-23T05:12:30.470Z,95
2022-12-23T05:13:31.341Z,95
2022-12-23T05:14:32.207Z,95
2022-12-23T05:15:33.391Z,95
2022-12-23T05:16:35.116Z,95
2022-12-23T05:17:36.601Z,95
2022-12-23T05:18:37.220Z,95
2022-12-23T05:19:38.437Z,95
2022-12-23T05:20:39.544Z,95
2022-12-23T05:21:40.448Z,95
2022-12-23T05:22:41.860Z,95
2022-12-23T05:23:42.992Z,95
2022-12-23T05:24:44.415Z,95
2022-12-23T05:25:45.313Z,95
2022-12-23T05:26:59.630Z,95
2022-12-23T05:28:01.562Z,95
2022-12-23T05:29:02.708Z,95
2022-12-23T05:30:03.850Z,95
2022-12-23T05:31:04.988Z,95
2022-12-23T05:32:06.406Z,95
2022-12-23T05:33:08.169Z,95
2022-12-23T05:34:09.669Z,95
2022-12-23T05:35:11.158Z,95
2022-12-23T05:36:12.542Z,95
2022-12-23T05:37:13.722Z,95
2022-12-23T05:38:14.856Z,95
2022-12-23T05:39:16.278Z,95
2022-12-23T05:40:31.483Z,95
2022-12-23T05:41:34.719Z,95
2022-12-23T05:42:35.872Z,95
2022-12-23T05:43:37.285Z,95
2022-12-23T05:44:38.693Z,95
2022-12-23T05:45:39.972Z,95
2022-12-23T05:46:41.970Z,95
2022-12-23T05:47:43.573Z,95
2022-12-23T05:48:44.706Z,95
2022-12-23T05:49:46.117Z,95
2022-12-23T05:50:47.621Z,95
2022-12-23T05:51:49.233Z,95
2022-12-23T05:52:50.646Z,95
2022-12-23T05:53:52.063Z,95
2022-12-23T05:54:53.247Z,95
2022-12-23T05:55:54.376Z,95
2022-12-23T05:56:55.792Z,95
2022-12-23T05:57:56.971Z,95
2022-12-23T05:58:57.875Z,95
2022-12-23T05:59:59.294Z,95
2022-12-23T06:01:00.702Z,95
2022-12-23T06:02:02.912Z,95
2022-12-23T06:03:05.074Z,95
2022-12-23T06:04:07.216Z,95
2022-12-23T06:05:08.395Z,95
2022-12-23T06:06:09.326Z,95
2022-12-23T06:07:10.295Z,95
2022-12-23T06:08:11.705Z,95
2022-12-23T06:09:13.128Z,95
2022-12-23T06:10:14.541Z,95
2022-12-23T06:11:15.447Z,95
2022-12-23T06:12:16.577Z,95
2022-12-23T06:13:17.855Z,95
2022-12-23T06:14:29.726Z,95
2022-12-23T06:15:30.895Z,95
2022-12-23T06:16:32.359Z,95
2022-12-23T06:17:33.871Z,95
2022-12-23T06:18:34.770Z,95
2022-12-23T06:19:36.184Z,95
2022-12-23T06:20:37.597Z,95
2022-12-23T06:21:38.804Z,95
2022-12-23T06:22:40.186Z,95
2022-12-23T06:23:41.651Z,95
2022-12-23T06:24:42.489Z,95
2022-12-23T06:25:43.624Z,95
2022-12-23T06:26:44.802Z,95
2022-12-23T06:27:46.219Z,95
2022-12-23T06:28:47.395Z,95
2022-12-23T06:29:48.532Z,95
2022-12-23T06:30:49.710Z,95
2022-12-23T06:31:51.330Z,96
2022-12-23T06:32:52.795Z,96
2022-12-23T06:33:53.686Z,96
2022-12-23T06:34:54.862Z,96
2022-12-23T06:35:55.998Z,96
2022-12-23T06:36:57.164Z,96
2022-12-23T06:37:58.351Z,96
2022-12-23T06:38:59.203Z,95
2022-12-23T06:40:00.626Z,95
2022-12-23T06:41:02.028Z,95
2022-12-23T06:42:03.445Z,95
2022-12-23T06:43:04.579Z,95
2022-12-23T06:44:05.717Z,95
2022-12-23T06:45:06.626Z,95
2022-12-23T06:46:08.104Z,95
2022-12-23T06:47:09.690Z,95
2022-12-23T06:48:11.104Z,95
2022-12-23T06:49:14.839Z,95
2022-12-23T06:50:15.973Z,95
2022-12-23T06:51:16.880Z,95
2022-12-23T06:52:18.318Z,95
2022-12-23T06:53:19.786Z,95
2022-12-23T06:54:20.917Z,95
2022-12-23T06:55:21.541Z,95
2022-12-23T06:56:22.969Z,95
2022-12-23T06:57:24.161Z,95
2022-12-23T06:58:25.573Z,95
2022-12-23T06:59:26.993Z,95
2022-12-23T07:00:28.129Z,95
2022-12-23T07:01:29.945Z,95
2022-12-23T07:02:31.873Z,95
2022-12-23T07:03:33.586Z,95
2022-12-23T07:04:34.877Z,95
2022-12-23T07:05:38.558Z,95
2022-12-23T07:06:39.694Z,95
2022-12-23T07:07:41.187Z,95
2022-12-23T07:08:42.028Z,95
2022-12-23T07:09:43.445Z,95
2022-12-23T07:10:44.301Z,95
2022-12-23T07:11:45.720Z,95
2022-12-23T07:12:51.445Z,95
2022-12-23T07:13:52.344Z,95
2022-12-23T07:14:53.761Z,95
2022-12-23T07:15:54.917Z,95
2022-12-23T07:16:56.435Z,95
2022-12-23T07:17:57.376Z,95
2022-12-23T07:18:58.500Z,95
2022-12-23T07:20:09.176Z,95
2022-12-23T07:21:30.199Z,95
2022-12-23T07:22:31.748Z,95
2022-12-23T07:23:32.962Z,95
2022-12-23T07:24:34.358Z,95
2022-12-23T07:25:35.777Z,95
2022-12-23T07:26:36.913Z,95
2022-12-23T07:27:38.319Z,95
2022-12-23T07:28:39.746Z,95
2022-12-23T07:29:41.154Z,95
2022-12-23T07:30:42.570Z,95
2022-12-23T07:31:43.875Z,95
2022-12-23T07:32:45.337Z,95
2022-12-23T07:33:46.765Z,94
2022-12-23T07:34:48.166Z,94
2022-12-23T07:35:49.600Z,94
2022-12-23T07:36:50.998Z,94
2022-12-23T07:37:52.411Z,94
2022-12-23T07:38:53.852Z,94
2022-12-23T07:39:54.973Z,94
2022-12-23T07:40:55.812Z,94
2022-12-23T07:42:46.409Z,94
2022-12-23T07:43:47.675Z,94
2022-12-23T07:44:49.078Z,94
2022-12-23T07:46:01.377Z,94
2022-12-23T07:47:02.900Z,94
2022-12-23T07:48:04.033Z,94
2022-12-23T07:49:05.441Z,94
2022-12-23T07:50:06.861Z,94
2022-12-23T07:51:08.300Z,94
2022-12-23T07:52:09.297Z,94
2022-12-23T07:53:10.731Z,94
2022-12-23T07:54:12.172Z,94
2022-12-23T07:55:13.571Z,94
2022-12-23T07:56:14.986Z,94
2022-12-23T07:57:16.125Z,94
2022-12-23T07:58:17.251Z,94
2022-12-23T07:59:18.393Z,94
2022-12-23T08:00:19.244Z,94
2022-12-23T08:01:20.949Z,94
2022-12-23T08:02:22.565Z,94
2022-12-23T08:03:24.588Z,94
2022-12-23T08:04:26.001Z,94
2022-12-23T08:05:27.799Z,94
2022-12-23T08:06:29.315Z,94
2022-12-23T08:07:30.724Z,94
2022-12-23T08:08:31.929Z,95
2022-12-23T08:09:33.169Z,95
2022-12-23T08:10:34.546Z,95
2022-12-23T08:11:35.723Z,95
2022-12-23T08:12:37.135Z,95
2022-12-23T08:13:38.276Z,95
2022-12-23T08:14:39.698Z,95
2022-12-23T08:15:41.103Z,95
2022-12-23T08:16:45.541Z,95
2022-12-23T08:17:46.940Z,95
2022-12-23T08:18:48.119Z,95
2022-12-23T08:19:49.492Z,95
2022-12-23T08:20:50.909Z,95
2022-12-23T08:21:52.044Z,95
2022-12-23T08:22:53.454Z,95
2022-12-23T08:23:54.598Z,95
2022-12-23T08:24:55.750Z,95
2022-12-23T08:25:56.586Z,95
2022-12-23T08:26:57.766Z,95
2022-12-23T08:27:59.184Z,95
2022-12-23T08:29:00.321Z,95
2022-12-23T08:30:01.537Z,95
2022-12-23T08:31:02.723Z,95
2022-12-23T08:32:04.239Z,95
2022-12-23T08:33:05.618Z,95
2022-12-23T08:34:06.806Z,95
2022-12-23T08:35:08.229Z,95
2022-12-23T08:36:09.638Z,95
2022-12-23T08:37:10.573Z,95
2022-12-23T08:38:11.950Z,95
2022-12-23T08:39:13.374Z,95
2022-12-23T08:40:14.804Z,95
2022-12-23T08:41:15.934Z,95
2022-12-23T08:42:16.774Z,95
2022-12-23T08:43:17.949Z,95
2022-12-23T08:44:19.363Z,95
2022-12-23T08:45:20.558Z,95
2022-12-23T08:46:21.940Z,95
2022-12-23T08:47:23.454Z,95
2022-12-23T08:48:24.593Z,95
2022-12-23T08:49:25.716Z,95
2022-12-23T08:50:27.129Z,95
2022-12-23T08:51:28.542Z,95
2022-12-23T08:52:29.980Z,95
2022-12-23T08:53:31.383Z,95
2022-12-23T08:54:32.280Z,95
2022-12-23T08:55:33.528Z,95
2022-12-23T08:56:34.702Z,95
2022-12-23T08:57:36.113Z,95
2022-12-23T08:58:37.546Z,95
2022-12-23T08:59:38.940Z,95
2022-12-23T09:00:40.356Z,95
2022-12-23T09:01:41.679Z,95
2022-12-23T09:02:44.012Z,95
2022-12-23T09:03:45.869Z,95
2022-12-23T09:04:47.334Z,95
2022-12-23T09:05:48.454Z,95
2022-12-23T09:06:49.101Z,95
2022-12-23T09:07:50.491Z,95
2022-12-23T09:08:51.632Z,95
2022-12-23T09:09:52.539Z,95
2022-12-23T09:10:53.707Z,95
2022-12-23T09:11:55.089Z,95
2022-12-23T09:12:59.066Z,95
2022-12-23T09:14:00.505Z,95
2022-12-23T09:15:01.648Z,95
2022-12-23T09:16:03.431Z,95
2022-12-23T09:17:04.916Z,95
2022-12-23T09:18:06.336Z,95
2022-12-23T09:19:07.467Z,95
2022-12-23T09:20:08.660Z,95
2022-12-23T09:21:10.077Z,95
2022-12-23T09:22:11.515Z,95
2022-12-23T09:23:12.723Z,95
2022-12-23T09:24:13.943Z,95
2022-12-23T09:25:15.155Z,95
2022-12-23T09:26:16.040Z,95
2022-12-23T09:27:17.222Z,95
2022-12-23T09:28:18.643Z,95
2022-12-23T09:29:19.775Z,95
2022-12-23T09:30:20.913Z,95
2022-12-23T09:31:22.209Z,95
2022-12-23T09:32:23.670Z,95
2022-12-23T09:33:24.611Z,95
2022-12-23T09:34:25.736Z,95
2022-12-23T09:35:26.869Z,95
2022-12-23T09:36:28.278Z,95
2022-12-23T09:37:29.185Z,95
2022-12-23T09:38:30.613Z,95
2022-12-23T09:39:32.022Z,95
2022-12-23T09:40:32.950Z,94
2022-12-23T09:41:34.407Z,94
2022-12-23T09:42:35.549Z,94
2022-12-23T09:43:36.745Z,94
2022-12-23T09:44:37.660Z,94
2022-12-23T09:45:41.495Z,94
2022-12-23T09:46:43.000Z,94
2022-12-23T09:47:44.466Z,94
2022-12-23T09:48:45.901Z,94
2022-12-23T09:49:47.103Z,94
2022-12-23T09:50:48.245Z,94
2022-12-23T09:51:49.666Z,94
2022-12-23T09:52:51.129Z,94
2022-12-23T09:53:52.309Z,94
2022-12-23T09:54:53.242Z,94
2022-12-23T09:55:54.494Z,94
2022-12-23T09:56:55.936Z,94
2022-12-23T09:57:57.047Z,94
2022-12-23T09:58:58.461Z,94
2022-12-23T09:59:59.595Z,94
2022-12-23T10:01:00.742Z,94
2022-12-23T10:02:02.609Z,94
2022-12-23T10:03:05.161Z,94
2022-12-23T10:04:06.564Z,94
2022-12-23T10:05:07.845Z,94
2022-12-23T10:06:09.053Z,94
2022-12-23T10:07:10.187Z,94
2022-12-23T10:08:11.391Z,94
2022-12-23T10:09:12.587Z,94
2022-12-23T10:10:13.711Z,94
2022-12-23T10:11:14.851Z,94
2022-12-23T10:12:15.795Z,94
2022-12-23T10:13:16.728Z,94
2022-12-23T10:14:17.858Z,94
2022-12-23T10:15:19.040Z,94
2022-12-23T10:16:20.558Z,94
2022-12-23T10:17:21.850Z,94
2022-12-23T10:18:23.264Z,94
2022-12-23T10:19:24.682Z,94
2022-12-23T10:20:26.097Z,94
2022-12-23T10:21:27.826Z,94
2022-12-23T10:22:28.962Z,94
2022-12-23T10:23:30.117Z,94
2022-12-23T10:24:30.951Z,94
2022-12-23T10:25:32.104Z,94
2022-12-23T10:26:33.241Z,94
2022-12-23T10:27:34.206Z,94
2022-12-23T10:28:35.083Z,94
2022-12-23T10:29:36.128Z,94
2022-12-23T10:31:41.276Z,94
2022-12-23T10:32:42.859Z,94
2022-12-23T10:33:44.114Z,94
2022-12-23T10:34:45.528Z,94
2022-12-23T10:35:46.935Z,94
2022-12-23T10:36:49.153Z,94
2022-12-23T10:37:50.482Z,94
2022-12-23T10:38:51.357Z,94
2022-12-23T10:39:53.252Z,94
2022-12-23T10:40:54.107Z,94
2022-12-23T10:41:55.265Z,94
2022-12-23T10:42:56.217Z,94
2022-12-23T10:43:57.182Z,94
2022-12-23T10:44:58.291Z,94
2022-12-23T10:45:59.208Z,94
2022-12-23T10:47:00.943Z,94
2022-12-23T10:48:02.141Z,94
2022-12-23T10:49:03.244Z,94
2022-12-23T10:50:04.673Z,94
2022-12-23T10:51:05.569Z,94
2022-12-23T10:52:06.704Z,94
2022-12-23T10:53:08.126Z,94
2022-12-23T10:54:09.548Z,94
2022-12-23T10:55:10.670Z,94
2022-12-23T10:56:11.581Z,94
2022-12-23T10:57:12.717Z,94
2022-12-23T10:58:14.160Z,94
2022-12-23T10:59:15.295Z,94
2022-12-23T11:00:16.813Z,94
2022-12-23T11:01:28.669Z,94
2022-12-23T11:02:31.030Z,94
2022-12-23T11:03:33.361Z,94
2022-12-23T11:04:34.523Z,94
2022-12-23T11:05:35.925Z,94
2022-12-23T11:06:38.871Z,94
2022-12-23T11:07:47.192Z,93
2022-12-23T11:08:49.039Z,93
2022-12-23T11:09:50.450Z,93
2022-12-23T11:10:51.597Z,93
2022-12-23T11:11:53.746Z,93
2022-12-23T11:12:55.017Z,93
2022-12-23T11:13:56.443Z,93
2022-12-23T11:14:57.676Z,93
2022-12-23T11:15:59.111Z,92
2022-12-23T11:17:00.700Z,93
2022-12-23T11:18:02.246Z,93
2022-12-23T11:19:03.733Z,93
2022-12-23T11:20:04.665Z,93
2022-12-23T11:21:05.880Z,93
2022-12-23T11:22:07.290Z,93
2022-12-23T11:23:08.425Z,93
2022-12-23T11:24:09.351Z,93
2022-12-23T11:25:10.260Z,93
2022-12-23T11:26:11.448Z,93
2022-12-23T11:27:12.863Z,93
2022-12-23T11:28:14.001Z,93
2022-12-23T11:29:14.970Z,93
2022-12-23T11:30:15.889Z,93
2022-12-23T11:31:17.037Z,93
2022-12-23T11:32:18.571Z,93
2022-12-23T11:33:19.999Z,93
2022-12-23T11:34:21.415Z,93
2022-12-23T11:35:22.925Z,93
2022-12-23T11:36:24.138Z,93
2022-12-23T11:37:25.278Z,93
2022-12-23T11:38:26.712Z,93
2022-12-23T11:39:27.615Z,93
2022-12-23T11:40:28.791Z,93
2022-12-23T11:41:29.935Z,93
2022-12-23T11:42:30.842Z,93
2022-12-23T11:43:32.023Z,92
2022-12-23T11:44:33.467Z,92
2022-12-23T11:45:34.351Z,92
2022-12-23T11:46:35.766Z,92
2022-12-23T11:47:38.064Z,92
2022-12-23T11:48:39.259Z,92
2022-12-23T11:49:40.672Z,92
2022-12-23T11:50:42.665Z,92
2022-12-23T11:51:44.085Z,92
2022-12-23T11:52:45.222Z,92
2022-12-23T11:53:46.636Z,92
2022-12-23T11:54:55.456Z,92
2022-12-23T11:55:56.359Z,91
2022-12-23T11:56:57.995Z,91
2022-12-23T11:57:59.315Z,91
2022-12-23T11:59:00.166Z,91
2022-12-23T12:00:01.098Z,91
2022-12-23T12:01:02.280Z,91
2022-12-23T12:02:03.635Z,91
2022-12-23T12:03:05.060Z,91
2022-12-23T12:04:06.183Z,91
2022-12-23T12:05:07.102Z,91
2022-12-23T12:06:08.475Z,91
2022-12-23T12:07:09.890Z,91
2022-12-23T12:08:11.305Z,90
2022-12-23T12:09:12.726Z,90
2022-12-23T12:10:13.859Z,90
2022-12-23T12:11:15.293Z,90
2022-12-23T12:12:16.422Z,90
2022-12-23T12:13:17.564Z,90
2022-12-23T12:14:18.976Z,90
2022-12-23T12:15:20.140Z,90
2022-12-23T12:16:21.877Z,90
2022-12-23T12:17:23.302Z,89
2022-12-23T12:18:24.715Z,89
2022-12-23T12:19:25.900Z,89
2022-12-23T12:20:26.766Z,89
2022-12-23T12:21:27.904Z,89
2022-12-23T12:22:29.042Z,89
2022-12-23T12:23:30.221Z,89
2022-12-23T12:24:31.630Z,89
2022-12-23T12:25:40.422Z,89
2022-12-23T12:26:42.408Z,89
2022-12-23T12:27:43.827Z,89
2022-12-23T12:28:45.051Z,89
2022-12-23T12:29:46.465Z,89
2022-12-23T12:30:48.647Z,89
2022-12-23T12:31:49.860Z,89
2022-12-23T12:32:51.045Z,89
2022-12-23T12:33:53.173Z,89
2022-12-23T12:34:54.603Z,89
2022-12-23T12:36:05.901Z,89
2022-12-23T12:37:07.095Z,89
2022-12-23T12:38:08.281Z,89
2022-12-23T12:39:09.700Z,89
2022-12-23T12:40:10.892Z,89
2022-12-23T12:41:12.024Z,89
2022-12-23T12:42:13.212Z,89
2022-12-23T12:43:14.630Z,89
2022-12-23T12:44:15.784Z,89
2022-12-23T12:45:17.189Z,89
2022-12-23T12:46:18.873Z,89
2022-12-23T12:47:58.356Z,89
2022-12-23T12:49:03.368Z,89
2022-12-23T12:50:04.802Z,89
2022-12-23T12:51:06.214Z,89
2022-12-23T12:52:07.341Z,89
2022-12-23T12:53:08.518Z,89
2022-12-23T12:54:09.936Z,89
2022-12-23T12:55:11.080Z,89
2022-12-23T12:56:12.487Z,89
2022-12-23T12:57:13.672Z,89
2022-12-23T12:58:14.809Z,89
2022-12-23T12:59:15.989Z,89
2022-12-23T13:00:16.905Z,89
2022-12-23T13:01:17.956Z,89
2022-12-23T13:02:19.593Z,89
2022-12-23T13:03:21.062Z,89
2022-12-23T13:04:21.689Z,89
2022-12-23T13:05:23.098Z,89
2022-12-23T13:06:24.512Z,89
2022-12-23T13:07:25.419Z,89
2022-12-23T13:08:26.289Z,89
2022-12-23T13:09:27.709Z,89
2022-12-23T13:10:29.106Z,89
2022-12-23T13:11:30.237Z,89
2022-12-23T13:12:31.371Z,89
2022-12-23T13:13:32.788Z,89
2022-12-23T13:14:34.211Z,89
2022-12-23T13:15:35.132Z,89
2022-12-23T13:16:36.531Z,89
2022-12-23T13:17:37.984Z,89
2022-12-23T13:18:39.391Z,89
2022-12-23T13:19:40.785Z,89
2022-12-23T13:20:41.683Z,89
2022-12-23T13:21:42.312Z,89
2022-12-23T13:22:43.728Z,89
2022-12-23T13:23:46.192Z,89
2022-12-23T13:24:47.731Z,89
2022-12-23T13:25:49.299Z,89
2022-12-23T13:26:50.716Z,89
2022-12-23T13:27:51.852Z,89
2022-12-23T13:28:53.404Z,89
2022-12-23T13:29:59.304Z,89
2022-12-23T13:31:00.928Z,89
2022-12-23T13:32:02.156Z,89
2022-12-23T13:33:03.587Z,90
2022-12-23T13:34:04.695Z,89
2022-12-23T13:35:06.205Z,90
2022-12-23T13:36:08.282Z,89
2022-12-23T13:37:09.735Z,90
2022-12-23T13:38:11.155Z,90
2022-12-23T13:39:12.565Z,90
2022-12-23T13:40:13.706Z,90
2022-12-23T13:41:15.114Z,90
2022-12-23T13:42:16.537Z,90
2022-12-23T13:43:18.032Z,90
2022-12-23T13:44:19.268Z,90
2022-12-23T13:45:20.170Z,90
2022-12-23T13:46:21.269Z,90
2022-12-23T13:47:22.532Z,90
2022-12-23T13:48:23.415Z,90
2022-12-23T13:49:24.781Z,90
2022-12-23T13:50:25.921Z,90
2022-12-23T13:51:26.834Z,90
2022-12-23T13:52:28.250Z,90
2022-12-23T13:53:29.656Z,90
2022-12-23T13:54:30.791Z,90
2022-12-23T13:55:31.928Z,90
2022-12-23T13:56:32.830Z,90
2022-12-23T13:57:34.262Z,90
2022-12-23T13:58:35.671Z,90
2022-12-23T13:59:38.257Z,90
2022-12-23T14:00:39.442Z,90
2022-12-23T14:01:41.994Z,90
2022-12-23T14:02:43.797Z,90
2022-12-23T14:03:45.002Z,90
2022-12-23T14:04:46.109Z,90
2022-12-23T14:05:47.288Z,90
2022-12-23T14:06:49.665Z,90
2022-12-23T14:07:51.080Z,90
2022-12-23T14:08:52.500Z,90
2022-12-23T14:09:53.910Z,90
2022-12-23T14:10:55.046Z,90
2022-12-23T14:12:05.131Z,90
2022-12-23T14:13:06.548Z,90
2022-12-23T14:14:07.732Z,90
2022-12-23T14:15:08.868Z,90
2022-12-23T14:16:10.615Z,90
2022-12-23T14:17:11.781Z,90
2022-12-23T14:18:13.199Z,90
2022-12-23T14:19:14.648Z,90
2022-12-23T14:20:15.829Z,91
2022-12-23T14:21:16.964Z,91
2022-12-23T14:22:17.817Z,91
2022-12-23T14:23:18.716Z,91
2022-12-23T14:24:19.915Z,91
2022-12-23T14:25:20.814Z,91
2022-12-23T14:26:21.730Z,91
2022-12-23T14:27:23.130Z,91
2022-12-23T14:28:24.558Z,91
2022-12-23T14:29:25.733Z,91
2022-12-23T14:30:27.149Z,91
2022-12-23T14:31:28.787Z,91
2022-12-23T14:32:30.292Z,91
2022-12-23T14:33:31.453Z,91
2022-12-23T14:34:32.887Z,91
2022-12-23T14:35:43.697Z,91
2022-12-23T14:36:45.103Z,91
2022-12-23T14:37:46.051Z,91
2022-12-23T14:38:46.953Z,92
2022-12-23T14:39:48.836Z,92
2022-12-23T14:40:49.775Z,92